Time;durP1;ratioP1;P1;durP2;ratioP2;P2;SDS_P1;SDS_P2;PMS_P1;PMS_P2;Temp;Humidity;BMP_temperature;BMP_pressure;BME280_temperature;BME280_humidity;BME280_pressure;Samples;Min_cycle;Max_cycle;Signal;HPM_P1;HPM_P2
2020/12/15 08:44:03;;;;;;;15.30;6.97;;;4.90;99.90;;;;;;6141538;23;20067;-94
2020/12/15 09:35:48;;;;;;;9.40;5.47;;;5.50;99.90;;;;;;6225652;23;20144;-94
2020/12/15 09:38:17;;;;;;;16.40;6.40;;;5.40;99.90;;;;;;6215254;23;20000;-94
2020/12/15 09:40:48;;;;;;;11.07;6.20;;;5.50;99.90;;;;;;6214868;23;20040;-95
2020/12/15 09:43:14;;;;;;;12.20;6.50;;;5.60;99.90;;;;;;6227509;23;19992;-93
2020/12/15 09:45:55;;;;;;;17.10;7.80;;;5.70;99.90;;;;;;6241329;23;20007;-94
2020/12/15 09:48:21;;;;;;;11.93;6.83;;;5.70;99.90;;;;;;6241113;23;19993;-94
2020/12/15 09:50:52;;;;;;;11.07;6.67;;;5.60;99.90;;;;;;6240696;23;19989;-95
2020/12/15 09:53:18;;;;;;;15.87;7.20;;;5.70;99.90;;;;;;6241074;23;19989;-94
2020/12/15 09:55:53;;;;;;;12.70;6.97;;;5.70;99.90;;;;;;6241007;23;20016;-95
2020/12/15 09:58:19;;;;;;;14.07;7.03;;;5.70;99.90;;;;;;6240809;23;19988;-95
2020/12/15 10:00:45;;;;;;;17.27;7.70;;;5.70;99.90;;;;;;6240422;23;19985;-95
2020/12/15 10:03:13;;;;;;;11.57;6.67;;;5.70;99.90;;;;;;6241103;23;20004;-94
2020/12/15 10:05:41;;;;;;;13.10;7.20;;;5.70;99.90;;;;;;6241182;23;20209;-96
2020/12/15 10:08:09;;;;;;;12.90;7.00;;;5.70;99.90;;;;;;6240988;23;20000;-96
2020/12/15 10:10:40;;;;;;;14.23;6.80;;;5.70;99.90;;;;;;6241246;23;19996;-96
2020/12/15 10:13:16;;;;;;;12.90;7.30;;;5.70;99.90;;;;;;6241441;23;20033;-96
2020/12/15 10:15:51;;;;;;;14.30;7.77;;;5.70;99.90;;;;;;6241471;23;20044;-95
2020/12/15 10:18:17;;;;;;;14.70;7.33;;;5.70;99.90;;;;;;6240768;23;19988;-95
2020/12/15 10:20:47;;;;;;;12.70;7.90;;;5.70;99.90;;;;;;6240798;23;20015;-96
2020/12/15 10:23:13;;;;;;;13.97;7.83;;;5.80;99.90;;;;;;6241557;23;19980;-94
2020/12/15 10:25:47;;;;;;;11.63;6.80;;;5.80;99.90;;;;;;6241786;23;20000;-95
2020/12/15 10:28:20;;;;;;;14.57;7.23;;;5.90;99.90;;;;;;6240821;23;19988;-96
2020/12/15 10:30:48;;;;;;;13.07;7.40;;;5.90;99.90;;;;;;6241239;23;20000;-96
2020/12/15 10:33:16;;;;;;;13.00;7.17;;;5.90;99.90;;;;;;6241160;23;20177;-96
2020/12/15 10:35:54;;;;;;;15.50;7.13;;;6.00;99.90;;;;;;6239775;23;20016;-95
2020/12/15 10:38:21;;;;;;;14.73;8.13;;;6.00;99.90;;;;;;6240629;23;20004;-95
2020/12/15 10:40:52;;;;;;;18.03;7.93;;;6.00;99.90;;;;;;6235078;23;19995;-95
2020/12/15 14:33:45;;;;;;;12.87;6.40;;;8.30;99.90;;;;;;6219618;23;20009;-96
2020/12/15 14:36:10;;;;;;;12.43;6.40;;;8.30;99.90;;;;;;6237774;23;20315;-94
2020/12/15 14:38:36;;;;;;;11.07;6.17;;;8.30;99.90;;;;;;6237781;23;19989;-95
2020/12/15 14:41:02;;;;;;;10.27;6.03;;;8.20;99.90;;;;;;6232106;23;20004;-96
2020/12/15 14:43:28;;;;;;;10.50;6.03;;;8.20;99.90;;;;;;6229757;22;20016;-96
2020/12/15 16:21:42;;;;;;;4.87;2.50;;;8.80;99.90;;;;;;6223954;22;20020;-94
2020/12/15 16:24:08;;;;;;;6.73;2.40;;;8.80;99.90;;;;;;6192192;23;20000;-93
2020/12/15 16:26:35;;;;;;;5.80;1.73;;;8.80;99.90;;;;;;6193056;23;20005;-93
2020/12/15 16:29:02;;;;;;;4.77;1.80;;;8.80;99.90;;;;;;6199774;23;20028;-94
2020/12/15 16:31:28;;;;;;;5.93;2.47;;;8.80;99.90;;;;;;6205909;23;20005;-94
2020/12/15 16:33:55;;;;;;;9.03;3.50;;;8.80;99.90;;;;;;6211475;23;20023;-94
2020/12/15 16:36:22;;;;;;;7.77;5.00;;;8.80;99.90;;;;;;6209897;23;19997;-93
2020/12/15 16:38:47;;;;;;;8.60;3.20;;;8.80;99.90;;;;;;6207922;22;20031;-95
2020/12/15 16:41:14;;;;;;;8.50;3.47;;;8.80;99.90;;;;;;6207253;23;20001;-93
2020/12/15 16:43:40;;;;;;;5.37;2.90;;;8.90;99.90;;;;;;6207529;23;20013;-93
2020/12/15 16:46:15;;;;;;;9.00;3.20;;;8.90;99.90;;;;;;6213823;22;19997;-94
2020/12/15 18:01:05;;;;;;;13.80;6.23;;;8.40;99.90;;;;;;6191995;22;20023;-91
2020/12/15 18:09:28;;;;;;;11.50;5.80;;;8.30;99.90;;;;;;6184073;22;20000;-92
2020/12/15 18:11:54;;;;;;;13.20;5.63;;;8.40;99.90;;;;;;6201532;23;20016;-93
2020/12/15 18:14:21;;;;;;;15.77;6.07;;;8.30;99.90;;;;;;6208893;23;20484;-91
2020/12/15 18:16:47;;;;;;;14.90;6.13;;;8.30;99.90;;;;;;6209114;23;20004;-92
2020/12/15 18:19:14;;;;;;;8.70;6.10;;;8.30;99.90;;;;;;6208715;23;20021;-92
2020/12/15 18:21:41;;;;;;;14.10;6.33;;;8.20;99.90;;;;;;6209894;23;20005;-92
2020/12/15 18:24:08;;;;;;;11.57;5.63;;;8.20;99.90;;;;;;6212701;23;20092;-93
2020/12/15 18:26:34;;;;;;;10.13;5.60;;;8.20;99.90;;;;;;6221207;22;20008;-94
2020/12/15 18:37:06;;;;;;;8.20;4.95;;;8.20;99.90;;;;;;6197991;22;20012;-93
2020/12/15 18:55:19;;;;;;;14.17;5.80;;;8.10;99.90;;;;;;6238233;22;20064;-93
2020/12/15 18:57:45;;;;;;;12.50;5.33;;;8.10;99.90;;;;;;6212315;22;20048;-94
2020/12/15 19:21:10;;;;;;;12.57;7.20;;;8.20;99.90;;;;;;6144696;23;20176;-92
2020/12/15 19:23:36;;;;;;;11.70;6.78;;;8.10;99.90;;;;;;6217772;22;20016;-95
2020/12/15 19:39:14;;;;;;;17.33;6.30;;;8.00;99.90;;;;;;6170108;23;19923;-93
2020/12/15 19:41:44;;;;;;;13.87;6.63;;;8.00;99.90;;;;;;6172932;23;20069;-94
2020/12/15 19:44:18;;;;;;;16.00;6.80;;;8.00;99.90;;;;;;6171606;23;20371;-95
2020/12/15 19:46:48;;;;;;;11.87;6.60;;;7.90;99.90;;;;;;6139053;23;19995;-93
2020/12/15 19:49:14;;;;;;;15.80;6.60;;;7.90;99.90;;;;;;6141885;23;20060;-93
2020/12/15 19:51:50;;;;;;;13.87;7.37;;;7.80;99.90;;;;;;6144226;23;20014;-95
2020/12/15 20:04:38;;;;;;;18.50;9.47;;;7.60;99.90;;;;;;6183541;22;20221;-95
2020/12/15 20:07:05;;;;;;;19.13;10.10;;;7.50;99.90;;;;;;6209171;23;20051;-95
2020/12/15 20:09:30;;;;;;;16.03;9.80;;;7.50;99.90;;;;;;6211448;22;20008;-95
2020/12/15 20:11:56;;;;;;;22.60;11.30;;;7.50;99.90;;;;;;6208139;22;20022;-95
2020/12/15 20:14:31;;;;;;;19.67;10.23;;;7.40;99.90;;;;;;6232433;22;20009;-95
2020/12/15 20:17:25;;;;;;;20.40;10.57;;;7.40;99.90;;;;;;6237345;22;19992;-95
2020/12/15 20:20:02;;;;;;;13.47;9.20;;;7.40;99.90;;;;;;6238383;22;20000;-96
2020/12/15 20:25:04;;;;;;;16.60;9.60;;;7.30;99.90;;;;;;6233462;22;20047;-92
2020/12/15 20:27:30;;;;;;;21.33;10.13;;;7.30;99.90;;;;;;6202812;23;20008;-92
2020/12/15 20:29:57;;;;;;;24.00;12.10;;;7.30;99.90;;;;;;6200667;22;20027;-94
2020/12/15 20:32:33;;;;;;;190.93;19.30;;;7.30;99.90;;;;;;6211850;22;20016;-93
2020/12/15 20:35:00;;;;;;;233.67;17.97;;;7.30;99.90;;;;;;6210871;22;19989;-95
2020/12/15 20:37:26;;;;;;;215.33;15.30;;;7.30;99.90;;;;;;6212538;22;19993;-93
2020/12/15 20:39:51;;;;;;;142.40;16.47;;;7.20;99.90;;;;;;6212230;22;20015;-94
2020/12/15 20:42:22;;;;;;;73.40;12.70;;;7.20;99.90;;;;;;6213561;22;20019;-95
2020/12/15 20:44:48;;;;;;;40.03;11.57;;;7.20;99.90;;;;;;6134342;23;20021;-95
2020/12/15 20:52:28;;;;;;;18.07;11.73;;;7.00;99.90;;;;;;6199989;22;20015;-95
2020/12/15 21:08:05;;;;;;;23.97;13.27;;;7.10;99.90;;;;;;6226287;22;20013;-91
2020/12/15 21:15:41;;;;;;;21.60;13.10;;;7.10;99.90;;;;;;6239809;22;20015;-94
2020/12/15 21:18:07;;;;;;;22.73;12.50;;;7.10;99.90;;;;;;6212382;22;19997;-94
2020/12/15 21:28:19;;;;;;;22.43;12.40;;;7.10;99.90;;;;;;6235744;22;20020;-92
2020/12/15 21:30:48;;;;;;;18.00;11.83;;;7.10;99.90;;;;;;6235828;22;20003;-96
2020/12/15 21:33:14;;;;;;;19.77;11.77;;;7.10;99.90;;;;;;6224720;22;20017;-93
2020/12/15 21:35:43;;;;;;;21.03;12.50;;;7.10;99.90;;;;;;6238731;22;20043;-94
2020/12/15 21:38:09;;;;;;;21.40;13.33;;;7.10;99.90;;;;;;6235038;22;20025;-92
2020/12/15 21:40:43;;;;;;;21.57;13.27;;;7.10;99.90;;;;;;6233146;22;20031;-93
2020/12/15 21:43:09;;;;;;;26.43;13.20;;;7.00;99.90;;;;;;6236305;22;20005;-93
2020/12/15 21:45:41;;;;;;;17.20;12.20;;;7.00;99.90;;;;;;6229514;22;20553;-93
2020/12/15 21:48:17;;;;;;;21.33;11.53;;;7.00;99.90;;;;;;6230553;22;20016;-91
2020/12/15 21:50:53;;;;;;;21.93;11.93;;;7.00;99.90;;;;;;6235629;22;20009;-92
2020/12/15 21:53:39;;;;;;;23.53;13.03;;;7.10;99.90;;;;;;6237197;22;20012;-92
2020/12/15 21:56:05;;;;;;;22.57;13.90;;;7.10;99.90;;;;;;6235391;22;19996;-91
2020/12/15 21:58:31;;;;;;;19.20;12.57;;;7.10;99.90;;;;;;6237370;22;20052;-94
2020/12/15 22:11:18;;;;;;;21.83;14.60;;;7.30;99.90;;;;;;6235716;22;20028;-92
2020/12/15 22:13:48;;;;;;;21.47;13.57;;;7.30;99.90;;;;;;6211279;22;19992;-91
2020/12/15 22:16:15;;;;;;;21.00;13.80;;;7.40;99.90;;;;;;6210596;22;19993;-92
2020/12/15 22:18:41;;;;;;;22.70;14.63;;;7.40;99.90;;;;;;6212435;22;20025;-93
2020/12/15 22:21:10;;;;;;;21.23;14.07;;;7.40;99.90;;;;;;6211352;22;20035;-93
2020/12/15 22:23:36;;;;;;;21.50;13.90;;;7.40;99.90;;;;;;6212109;22;19997;-92
2020/12/15 22:26:06;;;;;;;20.20;12.53;;;7.40;99.90;;;;;;6210623;23;20008;-92
2020/12/15 22:28:32;;;;;;;19.17;11.73;;;7.40;99.90;;;;;;6202842;22;20004;-95
2020/12/15 22:30:58;;;;;;;17.77;11.40;;;7.40;99.90;;;;;;6210186;22;20048;-93
2020/12/15 22:33:23;;;;;;;15.93;11.10;;;7.30;99.90;;;;;;6210456;22;19996;-92
2020/12/15 22:35:50;;;;;;;20.57;12.23;;;7.30;99.90;;;;;;6211850;22;19997;-93
2020/12/15 22:38:15;;;;;;;20.90;11.90;;;7.30;99.90;;;;;;6236557;22;20019;-92
2020/12/15 22:40:41;;;;;;;18.10;11.90;;;7.20;99.90;;;;;;6210691;22;20001;-94
2020/12/15 22:43:09;;;;;;;20.27;11.87;;;7.20;99.90;;;;;;6212669;22;19997;-92
2020/12/15 22:45:50;;;;;;;19.33;12.07;;;7.20;99.90;;;;;;6208956;22;20190;-93
2020/12/15 22:48:16;;;;;;;25.67;12.67;;;7.20;99.90;;;;;;6212831;22;19997;-93
